Oceania — YBVV2 — position and weather

sailwx.info

Track history (hours):
 
Tides and Currents Weather Stations Pressure Air Temp Water Temp Dewpoint Dewpoint Depression Visibility Wind Speed Wind Dir Waves Ship Positions

Oceania

Last reported at 2018-Jul-31 03:34 UTC. Time now 2018-Aug-14 19:26 UTC.
Position N 01°26' E 103°13'.
Warning: this ship's position is 14 days out of date.

Length 241 m; draft 12 m.

Type: Ship. MMSI: 525107006.

Date/timePositionNaut miles runAvg speedWind from/ knotsBaromVisibWave heightAir tempDewpointWater temp
2018-Jul-31 03:34N 01°26' E 103°13'3 9.9
2018-Jul-31 03:15N 01°23' E 103°15'3 9.8
2018-Jul-31 02:58N 01°22' E 103°17'710.1
2018-Jul-31 02:19N 01°17' E 103°22'310.7
2018-Jul-31 01:59N 01°15' E 103°24'611.1
2018-Jul-31 01:28N 01°13' E 103°30'510.9
2018-Jul-31 01:01N 01°12' E 103°35'510.5
2018-Jul-31 00:30N 01°11' E 103°40'5 9.7
2018-Jul-31 00:00N 01°09' E 103°44'4 8.8
2018-Jul-30 23:31N 01°11' E 103°48'4 7.4
2018-Jul-30 23:01N 01°12' E 103°52'3 6.7
2018-Jul-30 22:30N 01°14' E 103°54'2 3.8
2018-Jul-30 22:00N 01°16' E 103°55'0 0.2
2018-Jul-30 21:20N 01°16' E 103°55'0 0.0
2018-Jul-30 20:59N 01°16' E 103°55'0 0.0
2018-Jul-30 20:29N 01°16' E 103°55'0 0.0
2018-Jul-30 19:59N 01°16' E 103°55'0 0.0
2018-Jul-30 19:28N 01°16' E 103°55'0 0.0
2018-Jul-30 18:59N 01°16' E 103°55'0 0.0
2018-Jul-30 18:29N 01°16' E 103°55'0 0.0
2018-Jul-30 17:59N 01°16' E 103°55'0 0.0
2018-Jul-30 17:26N 01°16' E 103°55'0 0.4
2018-Jul-30 16:56N 01°16' E 103°55'0 0.2
2018-Jul-30 16:29N 01°16' E 103°55'0 0.1
2018-Jul-30 15:58N 01°16' E 103°55'0 0.0
2018-Jul-30 15:29N 01°16' E 103°55'0 0.1
2018-Jul-30 14:46N 01°16' E 103°55'0 0.1
2018-Jul-30 14:17N 01°16' E 103°55'0 0.2
2018-Jul-30 13:55N 01°16' E 103°55'0 0.0
2018-Jul-30 13:26N 01°16' E 103°55'0 0.0
2018-Jul-30 12:59N 01°16' E 103°55'0 0.0
2018-Jul-30 12:29N 01°16' E 103°55'0 0.0
2018-Jul-30 11:56N 01°16' E 103°55'0 0.0
2018-Jul-30 11:28N 01°16' E 103°55'0 0.2
2018-Jul-30 10:59N 01°16' E 103°55'0 0.1
2018-Jul-30 10:26N 01°16' E 103°55'0 0.2
2018-Jul-30 09:56N 01°16' E 103°55'0 0.1
2018-Jul-30 09:26N 01°16' E 103°55'0 0.0
2018-Jul-30 08:59N 01°16' E 103°55'0 0.0
2018-Jul-30 08:29N 01°16' E 103°55'0 0.1
2018-Jul-30 07:59N 01°16' E 103°55'0 0.0
2018-Jul-30 07:20N 01°16' E 103°55'0 0.0
2018-Jul-30 07:00N 01°16' E 103°55'0 0.0
2018-Jul-30 06:28N 01°16' E 103°55'0 0.0
2018-Jul-30 05:59N 01°16' E 103°55'0 0.0
2018-Jul-30 05:20N 01°16' E 103°55'0 0.0
2018-Jul-30 04:58N 01°16' E 103°55'0 0.2
2018-Jul-30 04:27N 01°16' E 103°55'2 4.9
2018-Jul-30 03:59N 01°16' E 103°57'2 3.8
2018-Jul-30 03:28N 01°16' E 103°59'2 4.4
2018-Jul-30 02:59N 01°16' E 104°01'2 4.8
2018-Jul-30 02:30N 01°16' E 104°04'4 7.5
2018-Jul-30 01:57N 01°17' E 104°08'510.4
2018-Jul-30 01:29N 01°17' E 104°12'510.4
2018-Jul-30 00:59N 01°18' E 104°18'510.1
2018-Jul-30 00:30N 01°21' E 104°22'510.1
2018-Jul-29 23:59N 01°24' E 104°26'5 9.3
2018-Jul-29 23:26N 01°27' E 104°30'5 9.4
2018-Jul-29 22:57N 01°30' E 104°33'5 9.1
2018-Jul-29 22:24N 01°33' E 104°37'4 9.6
2018-Jul-29 21:56N 01°35' E 104°42'16 9.9
2018-Jul-29 20:16N 01°40' E 104°57'  
Track history (hours):
 
Tides and Currents Weather Stations Pressure Air Temp Water Temp Dewpoint Dewpoint Depression Visibility Wind Speed Wind Dir Waves Ship Positions

Oceania

Last reported at 2018-Jul-31 03:34 UTC. Time now 2018-Aug-14 19:26 UTC.
Position N 01°26' E 103°13'.
Warning: this ship's position is 14 days out of date.

Length 241 m; draft 12 m.

Type: Ship. MMSI: 525107006.

Date/timePositionNaut miles runAvg speedWind from/ knotsBaromVisibWave heightAir tempDewpointWater temp
2018-Jul-31 03:34N 01°26' E 103°13'3 9.9
2018-Jul-31 03:15N 01°23' E 103°15'3 9.8
2018-Jul-31 02:58N 01°22' E 103°17'710.1
2018-Jul-31 02:19N 01°17' E 103°22'310.7
2018-Jul-31 01:59N 01°15' E 103°24'611.1
2018-Jul-31 01:28N 01°13' E 103°30'510.9
2018-Jul-31 01:01N 01°12' E 103°35'510.5
2018-Jul-31 00:30N 01°11' E 103°40'5 9.7
2018-Jul-31 00:00N 01°09' E 103°44'4 8.8
2018-Jul-30 23:31N 01°11' E 103°48'4 7.4
2018-Jul-30 23:01N 01°12' E 103°52'3 6.7
2018-Jul-30 22:30N 01°14' E 103°54'2 3.8
2018-Jul-30 22:00N 01°16' E 103°55'0 0.2
2018-Jul-30 21:20N 01°16' E 103°55'0 0.0
2018-Jul-30 20:59N 01°16' E 103°55'0 0.0
2018-Jul-30 20:29N 01°16' E 103°55'0 0.0
2018-Jul-30 19:59N 01°16' E 103°55'0 0.0
2018-Jul-30 19:28N 01°16' E 103°55'0 0.0
2018-Jul-30 18:59N 01°16' E 103°55'0 0.0
2018-Jul-30 18:29N 01°16' E 103°55'0 0.0
2018-Jul-30 17:59N 01°16' E 103°55'0 0.0
2018-Jul-30 17:26N 01°16' E 103°55'0 0.4
2018-Jul-30 16:56N 01°16' E 103°55'0 0.2
2018-Jul-30 16:29N 01°16' E 103°55'0 0.1
2018-Jul-30 15:58N 01°16' E 103°55'0 0.0
2018-Jul-30 15:29N 01°16' E 103°55'0 0.1
2018-Jul-30 14:46N 01°16' E 103°55'0 0.1
2018-Jul-30 14:17N 01°16' E 103°55'0 0.2
2018-Jul-30 13:55N 01°16' E 103°55'0 0.0
2018-Jul-30 13:26N 01°16' E 103°55'0 0.0
2018-Jul-30 12:59N 01°16' E 103°55'0 0.0
2018-Jul-30 12:29N 01°16' E 103°55'0 0.0
2018-Jul-30 11:56N 01°16' E 103°55'0 0.0
2018-Jul-30 11:28N 01°16' E 103°55'0 0.2
2018-Jul-30 10:59N 01°16' E 103°55'0 0.1
2018-Jul-30 10:26N 01°16' E 103°55'0 0.2
2018-Jul-30 09:56N 01°16' E 103°55'0 0.1
2018-Jul-30 09:26N 01°16' E 103°55'0 0.0
2018-Jul-30 08:59N 01°16' E 103°55'0 0.0
2018-Jul-30 08:29N 01°16' E 103°55'0 0.1
2018-Jul-30 07:59N 01°16' E 103°55'0 0.0
2018-Jul-30 07:20N 01°16' E 103°55'0 0.0
2018-Jul-30 07:00N 01°16' E 103°55'0 0.0
2018-Jul-30 06:28N 01°16' E 103°55'0 0.0
2018-Jul-30 05:59N 01°16' E 103°55'0 0.0
2018-Jul-30 05:20N 01°16' E 103°55'0 0.0
2018-Jul-30 04:58N 01°16' E 103°55'0 0.2
2018-Jul-30 04:27N 01°16' E 103°55'2 4.9
2018-Jul-30 03:59N 01°16' E 103°57'2 3.8
2018-Jul-30 03:28N 01°16' E 103°59'2 4.4
2018-Jul-30 02:59N 01°16' E 104°01'2 4.8
2018-Jul-30 02:30N 01°16' E 104°04'4 7.5
2018-Jul-30 01:57N 01°17' E 104°08'510.4
2018-Jul-30 01:29N 01°17' E 104°12'510.4
2018-Jul-30 00:59N 01°18' E 104°18'510.1
2018-Jul-30 00:30N 01°21' E 104°22'510.1
2018-Jul-29 23:59N 01°24' E 104°26'5 9.3
2018-Jul-29 23:26N 01°27' E 104°30'5 9.4
2018-Jul-29 22:57N 01°30' E 104°33'5 9.1
2018-Jul-29 22:24N 01°33' E 104°37'4 9.6
2018-Jul-29 21:56N 01°35' E 104°42'16 9.9
2018-Jul-29 20:16N 01°40' E 104°57'  

Dump ship's entire track history